Time;durP1;ratioP1;P1;durP2;ratioP2;P2;SDS_P1;SDS_P2;PMS_P1;PMS_P2;Temp;Humidity;BMP_temperature;BMP_pressure;BME280_temperature;BME280_humidity;BME280_pressure;Samples;Min_cycle;Max_cycle;Signal;HPM_P1;HPM_P2
2024/01/21 00:00:09;;;;;;;12.38;8.82;;;-4.10;99.90;;;;;;5117985;27;20213;-72
2024/01/21 00:02:36;;;;;;;15.30;8.95;;;-3.90;99.90;;;;;;5114724;27;20216;-71
2024/01/21 00:05:04;;;;;;;10.52;8.82;;;-3.90;99.80;;;;;;5111007;27;20195;-71
2024/01/21 00:07:31;;;;;;;10.63;9.52;;;-3.90;99.60;;;;;;5113905;27;20197;-72
2024/01/21 00:09:58;;;;;;;6.93;5.25;;;-3.90;99.20;;;;;;5117229;27;20204;-72
2024/01/21 00:12:25;;;;;;;13.13;7.53;;;-3.90;99.30;;;;;;5118600;27;20208;-71
2024/01/21 00:14:51;;;;;;;12.25;10.32;;;-3.90;99.00;;;;;;5119883;27;20300;-72
2024/01/21 00:17:18;;;;;;;8.40;7.18;;;-4.00;99.00;;;;;;5116633;27;20956;-71
2024/01/21 00:19:45;;;;;;;9.70;5.30;;;-3.90;98.90;;;;;;5118139;27;20194;-71
2024/01/21 00:22:13;;;;;;;13.23;7.28;;;-3.90;99.00;;;;;;5118342;27;20212;-71
2024/01/21 00:24:40;;;;;;;6.30;5.35;;;-3.90;99.00;;;;;;5126464;27;20189;-71
2024/01/21 00:27:06;;;;;;;9.93;6.72;;;-3.90;98.90;;;;;;5121295;27;20199;-71
2024/01/21 00:29:33;;;;;;;14.73;7.68;;;-3.90;98.60;;;;;;5113572;27;20209;-71
2024/01/21 00:32:00;;;;;;;10.18;8.20;;;-3.90;98.50;;;;;;5119962;27;20564;-71
2024/01/21 00:34:27;;;;;;;6.90;5.22;;;-3.90;98.40;;;;;;5121331;27;20568;-71
2024/01/21 00:36:54;;;;;;;6.60;6.20;;;-3.90;98.30;;;;;;5120669;27;20282;-71
2024/01/21 00:39:22;;;;;;;6.57;4.30;;;-3.80;98.30;;;;;;5111971;27;20208;-71
2024/01/21 00:41:48;;;;;;;7.93;4.43;;;-3.90;98.10;;;;;;5118502;27;20201;-71
2024/01/21 00:44:16;;;;;;;5.97;4.43;;;-3.90;98.10;;;;;;5119538;27;20204;-73
2024/01/21 00:46:42;;;;;;;14.00;6.07;;;-3.90;98.10;;;;;;5112417;27;20206;-72
2024/01/21 00:49:09;;;;;;;9.07;7.68;;;-3.90;98.10;;;;;;5103250;27;20194;-72
2024/01/21 00:51:36;;;;;;;16.23;7.38;;;-4.00;98.10;;;;;;5112340;27;20199;-72
2024/01/21 00:54:03;;;;;;;7.13;5.70;;;-4.00;98.00;;;;;;5115957;27;20233;-72
2024/01/21 00:56:31;;;;;;;10.88;7.53;;;-3.90;98.10;;;;;;5117789;27;20198;-72
2024/01/21 00:58:58;;;;;;;11.95;6.28;;;-3.90;98.10;;;;;;5120769;27;20198;-72
2024/01/21 01:01:25;;;;;;;8.73;6.35;;;-3.90;98.00;;;;;;5113119;27;20201;-71
2024/01/21 01:03:51;;;;;;;7.95;5.68;;;-3.90;97.90;;;;;;5110102;27;20664;-72
2024/01/21 01:06:18;;;;;;;6.55;5.55;;;-4.00;97.90;;;;;;5121903;27;20663;-71
2024/01/21 01:08:45;;;;;;;7.85;6.13;;;-4.00;98.00;;;;;;5118508;27;20650;-72
2024/01/21 01:11:12;;;;;;;11.18;5.22;;;-4.00;98.00;;;;;;5105954;27;20194;-72
2024/01/21 01:13:40;;;;;;;18.90;8.55;;;-4.00;98.00;;;;;;5115540;27;20204;-72
2024/01/21 01:16:07;;;;;;;12.57;6.07;;;-4.00;98.10;;;;;;5118060;27;20221;-71
2024/01/21 01:18:34;;;;;;;6.25;5.68;;;-4.00;98.00;;;;;;5107768;27;20210;-71
2024/01/21 01:21:01;;;;;;;6.47;4.72;;;-4.00;97.90;;;;;;5114256;27;20288;-71
2024/01/21 01:23:27;;;;;;;11.73;4.78;;;-4.00;97.90;;;;;;5108277;27;20200;-71
2024/01/21 01:25:54;;;;;;;5.00;4.00;;;-4.00;97.70;;;;;;5119076;27;20189;-71
2024/01/21 01:28:21;;;;;;;12.77;8.18;;;-4.00;97.70;;;;;;5118327;27;20568;-73
2024/01/21 01:30:49;;;;;;;6.97;6.35;;;-4.00;97.70;;;;;;5110282;27;20557;-73
2024/01/21 01:33:16;;;;;;;14.55;7.20;;;-3.90;97.50;;;;;;5103351;27;20561;-72
2024/01/21 01:35:43;;;;;;;8.63;5.88;;;-4.00;97.60;;;;;;5108532;27;20320;-73
2024/01/21 01:38:12;;;;;;;4.88;4.18;;;-4.00;98.00;;;;;;5113461;27;20190;-73
2024/01/21 01:40:38;;;;;;;4.65;3.67;;;-4.00;97.60;;;;;;5108647;27;20202;-70
2024/01/21 01:43:06;;;;;;;2.85;2.63;;;-3.90;97.70;;;;;;5097793;27;20199;-71
2024/01/21 01:45:32;;;;;;;7.43;4.63;;;-3.70;97.60;;;;;;5113711;28;20199;-70
2024/01/21 01:48:02;;;;;;;4.07;3.00;;;-3.60;97.40;;;;;;5097832;27;20207;-71
2024/01/21 01:50:31;;;;;;;7.25;4.50;;;-3.70;97.30;;;;;;5107972;27;20348;-71
2024/01/21 01:52:59;;;;;;;8.57;3.33;;;-3.70;97.30;;;;;;5111407;28;20194;-71
2024/01/21 01:55:26;;;;;;;5.95;4.50;;;-3.80;97.00;;;;;;5114275;27;20237;-71
2024/01/21 01:57:55;;;;;;;5.22;2.85;;;-3.80;97.40;;;;;;5114654;28;20204;-73
2024/01/21 02:00:22;;;;;;;3.72;3.53;;;-3.70;97.50;;;;;;5111554;28;20199;-71
2024/01/21 02:02:49;;;;;;;10.40;3.90;;;-3.70;97.40;;;;;;5114940;28;20677;-71
2024/01/21 02:05:17;;;;;;;9.43;3.60;;;-3.60;97.30;;;;;;5114974;28;20237;-71
2024/01/21 02:07:45;;;;;;;5.00;2.88;;;-3.70;97.20;;;;;;5122496;28;20202;-71
2024/01/21 02:10:12;;;;;;;4.20;3.38;;;-3.70;97.30;;;;;;5124169;28;20205;-72
2024/01/21 02:12:44;;;;;;;8.68;6.50;;;-3.70;97.20;;;;;;5116762;27;20730;-72
2024/01/21 02:15:12;;;;;;;4.10;2.65;;;-3.70;97.30;;;;;;5116469;27;20226;-72
2024/01/21 02:17:38;;;;;;;11.68;3.00;;;-3.70;97.20;;;;;;5123663;28;20194;-72
2024/01/21 02:20:07;;;;;;;3.85;2.90;;;-3.70;97.20;;;;;;5117669;28;20204;-72
2024/01/21 02:22:38;;;;;;;2.80;2.60;;;-3.60;96.90;;;;;;5116401;28;20690;-73
2024/01/21 02:25:07;;;;;;;3.13;2.90;;;-3.60;96.60;;;;;;5116920;28;20648;-72
2024/01/21 02:27:35;;;;;;;3.85;3.55;;;-3.50;97.00;;;;;;5115037;28;20293;-72
2024/01/21 02:30:06;;;;;;;3.90;3.55;;;-3.50;96.60;;;;;;5115675;28;20209;-72
2024/01/21 02:32:33;;;;;;;5.25;3.10;;;-3.50;96.50;;;;;;5116497;28;20538;-72
2024/01/21 02:35:01;;;;;;;3.15;2.95;;;-3.40;96.40;;;;;;5122567;28;20312;-72
2024/01/21 02:37:29;;;;;;;3.22;3.00;;;-3.50;96.20;;;;;;5114084;27;20221;-72
2024/01/21 02:39:57;;;;;;;4.10;3.75;;;-3.50;96.10;;;;;;5116049;27;20201;-71
2024/01/21 02:42:27;;;;;;;4.40;3.58;;;-3.50;96.20;;;;;;5104008;28;20290;-71
2024/01/21 02:44:55;;;;;;;8.85;3.50;;;-3.60;96.20;;;;;;5101639;28;20609;-71
2024/01/21 02:47:24;;;;;;;12.23;4.13;;;-3.70;96.90;;;;;;5094518;28;20233;-71
2024/01/21 02:49:52;;;;;;;4.80;3.97;;;-3.70;96.80;;;;;;5099068;28;20723;-72
2024/01/21 02:52:19;;;;;;;2.97;2.55;;;-3.80;96.90;;;;;;5102436;27;20201;-71
2024/01/21 02:54:45;;;;;;;3.03;2.75;;;-3.80;97.50;;;;;;5100771;27;20314;-72
2024/01/21 02:57:12;;;;;;;6.82;3.90;;;-3.70;97.30;;;;;;5113221;27;20194;-71
2024/01/21 02:59:40;;;;;;;3.33;3.03;;;-3.50;96.90;;;;;;5108955;27;20194;-71
2024/01/21 03:02:08;;;;;;;5.78;4.68;;;-3.50;96.70;;;;;;5106472;27;21942;-71
2024/01/21 03:04:36;;;;;;;3.53;2.75;;;-3.50;96.70;;;;;;5112469;27;20661;-71
2024/01/21 03:07:03;;;;;;;3.95;3.65;;;-3.40;96.50;;;;;;5104216;27;20190;-71
2024/01/21 03:09:30;;;;;;;5.85;4.50;;;-3.40;96.20;;;;;;5107823;27;20193;-71
2024/01/21 03:11:58;;;;;;;3.95;3.55;;;-3.40;96.10;;;;;;5108113;27;20545;-71
2024/01/21 03:14:25;;;;;;;4.78;4.38;;;-3.40;96.10;;;;;;5103378;27;20230;-71
2024/01/21 03:16:54;;;;;;;3.42;3.22;;;-3.40;95.90;;;;;;5120570;27;20205;-71
2024/01/21 03:19:22;;;;;;;3.78;3.42;;;-3.40;96.00;;;;;;5113283;27;20206;-71
2024/01/21 03:21:50;;;;;;;4.07;3.45;;;-3.50;96.10;;;;;;5111573;27;20209;-72
2024/01/21 03:24:18;;;;;;;3.90;3.42;;;-3.40;96.10;;;;;;5111119;27;20628;-72
2024/01/21 03:26:46;;;;;;;2.00;1.90;;;-3.40;96.00;;;;;;5105123;27;20203;-72
2024/01/21 03:29:14;;;;;;;3.45;2.90;;;-3.40;95.90;;;;;;5106204;27;20198;-72
2024/01/21 03:31:41;;;;;;;4.30;2.97;;;-3.40;96.10;;;;;;5109400;27;20203;-72
2024/01/21 03:34:10;;;;;;;9.80;2.30;;;-3.50;95.40;;;;;;5104241;27;20207;-72
2024/01/21 03:36:39;;;;;;;3.95;3.65;;;-3.40;95.70;;;;;;5100297;27;20221;-71
2024/01/21 03:39:07;;;;;;;1.50;1.45;;;-3.40;95.70;;;;;;5101568;27;20195;-71
2024/01/21 03:41:36;;;;;;;4.32;3.60;;;-3.50;95.50;;;;;;5106845;27;21120;-72
2024/01/21 03:44:03;;;;;;;2.80;2.08;;;-3.40;95.70;;;;;;5104885;27;20226;-71
2024/01/21 03:46:30;;;;;;;2.45;1.70;;;-3.40;95.80;;;;;;5094949;27;20207;-71
2024/01/21 03:48:57;;;;;;;5.50;3.53;;;-3.40;95.80;;;;;;5110794;28;20529;-71
2024/01/21 03:51:26;;;;;;;1.98;1.80;;;-3.30;95.80;;;;;;5111901;27;20313;-71
2024/01/21 03:53:53;;;;;;;3.30;3.10;;;-3.30;95.70;;;;;;5124327;27;20185;-71
2024/01/21 03:56:20;;;;;;;2.70;1.80;;;-3.40;95.40;;;;;;5115999;27;20430;-71
2024/01/21 03:58:47;;;;;;;3.20;3.00;;;-3.30;95.80;;;;;;5126429;27;20194;-71
2024/01/21 04:01:14;;;;;;;5.10;3.70;;;-3.40;95.70;;;;;;5119181;27;20286;-71
2024/01/21 04:03:41;;;;;;;6.15;3.20;;;-3.40;95.60;;;;;;5125932;27;20194;-71
2024/01/21 04:06:08;;;;;;;3.63;2.92;;;-3.40;95.70;;;;;;5118066;27;20277;-71
2024/01/21 04:08:36;;;;;;;4.40;3.15;;;-3.30;95.70;;;;;;5120532;27;20289;-71
2024/01/21 04:11:03;;;;;;;5.30;3.53;;;-3.40;95.90;;;;;;5111468;27;20563;-71
2024/01/21 04:13:30;;;;;;;5.95;1.75;;;-3.40;96.00;;;;;;5122417;27;20542;-71
2024/01/21 04:15:57;;;;;;;5.05;3.65;;;-3.40;95.90;;;;;;5113534;27;20223;-71
2024/01/21 04:18:24;;;;;;;4.07;3.63;;;-3.40;96.20;;;;;;5113727;27;20191;-71
2024/01/21 04:20:50;;;;;;;5.93;3.90;;;-3.40;95.90;;;;;;5114310;27;20276;-72
2024/01/21 04:23:17;;;;;;;4.22;3.72;;;-3.40;95.90;;;;;;5115729;27;20197;-72
2024/01/21 04:25:45;;;;;;;3.92;3.00;;;-3.30;96.00;;;;;;5118713;27;20202;-72
2024/01/21 04:28:12;;;;;;;3.22;2.88;;;-3.30;95.70;;;;;;5116212;27;20207;-72
2024/01/21 04:30:39;;;;;;;5.53;3.75;;;-3.20;95.50;;;;;;5115021;27;20196;-72
2024/01/21 04:33:06;;;;;;;2.47;2.28;;;-3.00;95.10;;;;;;5119383;27;20642;-71
2024/01/21 04:35:33;;;;;;;2.25;2.03;;;-3.10;94.90;;;;;;5115784;27;20237;-72
2024/01/21 04:37:59;;;;;;;7.47;3.35;;;-3.20;94.90;;;;;;5115639;27;20202;-72
2024/01/21 04:40:26;;;;;;;3.92;3.53;;;-3.20;95.10;;;;;;5103814;27;20199;-72
2024/01/21 04:42:54;;;;;;;3.55;2.58;;;-3.10;94.90;;;;;;5108220;27;20668;-72
2024/01/21 04:45:21;;;;;;;3.25;3.05;;;-3.20;95.00;;;;;;5097109;27;20213;-72
2024/01/21 04:47:48;;;;;;;2.05;1.90;;;-3.20;95.00;;;;;;5093836;27;20209;-72
2024/01/21 04:50:15;;;;;;;7.38;2.28;;;-3.20;95.00;;;;;;5097038;27;20285;-72
2024/01/21 04:52:41;;;;;;;2.10;2.00;;;-3.20;95.40;;;;;;5105192;27;20205;-72
2024/01/21 04:55:09;;;;;;;2.05;1.73;;;-3.20;95.20;;;;;;5115448;27;20226;-72
2024/01/21 04:57:36;;;;;;;3.55;3.25;;;-3.20;95.00;;;;;;5126161;27;20280;-72
2024/01/21 05:00:05;;;;;;;5.45;2.92;;;-3.10;94.80;;;;;;5116351;27;20195;-72
2024/01/21 05:02:32;;;;;;;2.95;2.85;;;-3.10;94.70;;;;;;5114442;27;20220;-72
2024/01/21 05:04:59;;;;;;;2.85;2.42;;;-3.10;95.00;;;;;;5120677;27;20285;-72
2024/01/21 05:07:26;;;;;;;1.10;1.05;;;-3.20;94.80;;;;;;5126140;27;20204;-71
2024/01/21 05:09:52;;;;;;;1.73;1.63;;;-3.30;94.90;;;;;;5123742;27;20209;-72
2024/01/21 05:12:19;;;;;;;3.40;3.10;;;-3.20;95.20;;;;;;5109552;27;20198;-72
2024/01/21 05:14:46;;;;;;;3.67;2.80;;;-3.20;95.10;;;;;;5118626;27;20193;-72
2024/01/21 05:17:14;;;;;;;2.95;2.67;;;-3.10;95.20;;;;;;5116298;27;20197;-72
2024/01/21 05:19:41;;;;;;;7.00;2.47;;;-3.20;95.20;;;;;;5109970;27;20200;-72
2024/01/21 05:22:07;;;;;;;2.92;2.67;;;-3.10;95.20;;;;;;5106257;27;20197;-72
2024/01/21 05:24:35;;;;;;;2.00;1.90;;;-3.20;95.10;;;;;;5111360;27;20202;-72
2024/01/21 05:27:02;;;;;;;2.65;2.45;;;-3.20;95.10;;;;;;5104193;27;20228;-71
2024/01/21 05:29:29;;;;;;;2.40;2.20;;;-3.30;95.20;;;;;;5107844;27;20206;-71
2024/01/21 05:31:56;;;;;;;3.08;1.83;;;-3.10;95.40;;;;;;5104238;27;20208;-72
2024/01/21 05:34:24;;;;;;;2.53;2.35;;;-3.20;95.20;;;;;;5109511;27;20204;-72
2024/01/21 05:36:51;;;;;;;2.83;2.58;;;-3.10;95.20;;;;;;5106817;27;20228;-72
2024/01/21 05:39:17;;;;;;;1.40;1.40;;;-3.20;95.10;;;;;;5109272;27;20196;-72
2024/01/21 05:41:44;;;;;;;3.80;2.13;;;-3.20;95.10;;;;;;5107401;27;20209;-72
2024/01/21 05:44:11;;;;;;;3.55;3.20;;;-3.20;95.20;;;;;;5111910;27;20198;-72
2024/01/21 05:46:38;;;;;;;2.45;1.85;;;-3.30;95.20;;;;;;5103681;28;20225;-72
2024/01/21 05:49:04;;;;;;;3.13;2.83;;;-3.40;95.90;;;;;;5094393;28;20299;-72
2024/01/21 05:51:32;;;;;;;2.55;2.35;;;-3.50;96.50;;;;;;5098795;28;20198;-69
2024/01/21 05:53:59;;;;;;;5.07;2.78;;;-3.40;96.30;;;;;;5099991;28;20194;-69
2024/01/21 05:56:26;;;;;;;5.45;3.10;;;-3.30;96.10;;;;;;5122020;27;20239;-72
2024/01/21 05:58:53;;;;;;;2.08;1.88;;;-3.40;96.00;;;;;;5112695;27;20507;-72
2024/01/21 06:01:19;;;;;;;2.85;2.53;;;-3.40;96.10;;;;;;5116561;28;20197;-70
2024/01/21 06:03:48;;;;;;;3.53;2.28;;;-3.40;96.30;;;;;;5115083;28;20224;-70
2024/01/21 06:06:15;;;;;;;3.00;2.65;;;-3.30;95.90;;;;;;5116355;27;20203;-73
2024/01/21 06:08:43;;;;;;;5.88;2.80;;;-3.30;95.70;;;;;;5117423;28;20198;-69
2024/01/21 06:11:09;;;;;;;7.88;4.20;;;-3.40;95.80;;;;;;5110703;28;20193;-70
2024/01/21 06:13:36;;;;;;;5.00;3.70;;;-3.70;96.40;;;;;;5109167;28;20211;-71
2024/01/21 06:16:04;;;;;;;3.40;2.47;;;-3.60;96.80;;;;;;5110807;28;20226;-71
2024/01/21 06:18:30;;;;;;;3.13;2.85;;;-3.60;96.80;;;;;;5109550;28;20199;-73
2024/01/21 06:20:57;;;;;;;2.67;2.03;;;-3.60;96.80;;;;;;5112585;28;20225;-69
2024/01/21 06:23:24;;;;;;;6.90;2.97;;;-3.60;96.70;;;;;;5110292;28;20194;-70
2024/01/21 06:25:52;;;;;;;5.32;3.03;;;-3.70;96.80;;;;;;5111066;27;20208;-72
2024/01/21 06:28:19;;;;;;;3.78;3.45;;;-3.70;96.70;;;;;;5114553;27;20194;-71
2024/01/21 06:30:46;;;;;;;2.97;2.67;;;-3.70;96.80;;;;;;5117844;27;20200;-71
2024/01/21 06:33:13;;;;;;;2.30;2.00;;;-3.70;96.90;;;;;;5113617;27;20545;-69
2024/01/21 06:35:40;;;;;;;3.13;2.92;;;-3.70;96.90;;;;;;5112519;27;20317;-69
2024/01/21 06:38:07;;;;;;;6.10;5.15;;;-3.70;96.90;;;;;;5117558;27;20253;-69
2024/01/21 06:40:34;;;;;;;4.35;3.10;;;-3.70;96.90;;;;;;5112264;27;20198;-69
2024/01/21 06:43:03;;;;;;;2.40;2.20;;;-3.80;97.20;;;;;;5108987;27;20197;-69
2024/01/21 06:45:30;;;;;;;2.92;2.60;;;-3.80;97.10;;;;;;5108596;27;20203;-69
2024/01/21 06:47:56;;;;;;;5.65;2.67;;;-3.80;97.00;;;;;;5104399;27;20218;-70
2024/01/21 06:50:23;;;;;;;4.75;3.78;;;-3.80;97.00;;;;;;5113085;27;20193;-69
2024/01/21 06:52:50;;;;;;;1.83;1.73;;;-3.80;96.90;;;;;;5107494;27;20738;-69
2024/01/21 06:55:17;;;;;;;2.90;2.58;;;-3.70;96.70;;;;;;5109869;27;20202;-69
2024/01/21 06:57:44;;;;;;;5.07;2.80;;;-3.70;96.50;;;;;;5115277;27;20264;-69
2024/01/21 07:00:14;;;;;;;3.08;2.40;;;-3.60;96.50;;;;;;5126224;27;20210;-69
2024/01/21 07:02:41;;;;;;;3.20;2.92;;;-3.60;96.40;;;;;;5116145;27;20202;-69
2024/01/21 07:05:09;;;;;;;2.92;2.72;;;-3.70;96.50;;;;;;5127379;27;20198;-69
2024/01/21 07:07:36;;;;;;;2.80;2.60;;;-3.70;96.70;;;;;;5122263;27;20692;-69
2024/01/21 07:10:03;;;;;;;5.30;2.55;;;-3.60;96.60;;;;;;5117992;27;20198;-69
2024/01/21 07:12:30;;;;;;;2.95;2.45;;;-3.60;96.70;;;;;;5117086;27;20197;-69
2024/01/21 07:14:56;;;;;;;3.67;3.47;;;-3.60;96.60;;;;;;5111014;27;20202;-69
2024/01/21 07:17:25;;;;;;;6.63;3.92;;;-3.50;96.60;;;;;;5122161;27;20230;-69
2024/01/21 07:19:53;;;;;;;6.55;2.60;;;-3.40;96.50;;;;;;5110610;27;20573;-69
2024/01/21 07:22:20;;;;;;;4.95;3.05;;;-3.40;96.50;;;;;;5104476;27;20222;-71
2024/01/21 07:24:47;;;;;;;2.20;2.10;;;-3.40;96.50;;;;;;5113673;27;20194;-69
2024/01/21 07:27:14;;;;;;;2.75;2.55;;;-3.30;96.60;;;;;;5109461;27;20202;-72
2024/01/21 07:29:41;;;;;;;3.58;2.90;;;-3.30;96.50;;;;;;5110322;27;20194;-73
2024/01/21 07:32:08;;;;;;;3.13;2.55;;;-3.20;96.40;;;;;;5101187;27;20617;-71
2024/01/21 07:34:36;;;;;;;3.80;3.50;;;-3.20;96.40;;;;;;5098448;27;20297;-71
2024/01/21 07:37:03;;;;;;;4.50;3.97;;;-3.20;96.40;;;;;;5103570;27;20257;-72
2024/01/21 07:39:29;;;;;;;3.83;3.15;;;-3.20;96.20;;;;;;5101621;27;20221;-72
2024/01/21 07:41:56;;;;;;;2.60;2.25;;;-3.10;96.20;;;;;;5100650;27;20204;-75
2024/01/21 07:44:23;;;;;;;2.72;2.53;;;-3.10;96.20;;;;;;5100437;27;20565;-72
2024/01/21 07:46:50;;;;;;;2.83;2.60;;;-3.00;96.10;;;;;;5108151;27;20564;-74
2024/01/21 07:49:16;;;;;;;5.75;5.15;;;-2.90;96.10;;;;;;5108817;27;20190;-73
2024/01/21 07:51:46;;;;;;;2.08;1.95;;;-2.90;96.20;;;;;;5103092;27;20194;-75
2024/01/21 07:54:13;;;;;;;6.05;3.17;;;-2.90;96.00;;;;;;5105262;27;20190;-74
2024/01/21 07:56:40;;;;;;;3.88;3.35;;;-2.90;96.30;;;;;;5120109;27;20221;-76
2024/01/21 07:59:06;;;;;;;5.18;3.75;;;-2.80;96.20;;;;;;5123674;27;20199;-72
2024/01/21 08:01:33;;;;;;;5.28;3.10;;;-2.70;96.10;;;;;;5113123;27;20655;-72
2024/01/21 08:04:00;;;;;;;7.72;2.95;;;-2.50;95.90;;;;;;5117181;27;20276;-72
2024/01/21 08:06:27;;;;;;;3.75;2.95;;;-2.40;95.80;;;;;;5107879;27;20226;-75
2024/01/21 08:08:55;;;;;;;4.28;3.33;;;-2.50;95.70;;;;;;5109516;27;20191;-75
2024/01/21 08:11:22;;;;;;;6.75;4.65;;;-2.30;96.00;;;;;;5115468;27;20211;-75
2024/01/21 08:13:49;;;;;;;6.30;3.25;;;-2.30;96.20;;;;;;5123274;27;20190;-76
2024/01/21 08:16:16;;;;;;;8.52;3.35;;;-2.30;96.20;;;;;;5113451;27;20229;-75
2024/01/21 08:18:44;;;;;;;2.67;2.47;;;-2.20;96.20;;;;;;5119394;27;20202;-75
2024/01/21 08:21:10;;;;;;;7.20;2.78;;;-2.20;96.10;;;;;;5101518;27;20190;-75
2024/01/21 08:23:40;;;;;;;5.28;4.78;;;-2.10;96.10;;;;;;5113936;27;20198;-74
2024/01/21 08:26:08;;;;;;;11.63;4.57;;;-2.10;96.00;;;;;;5113309;27;20293;-74
2024/01/21 08:28:35;;;;;;;5.43;2.80;;;-2.00;96.00;;;;;;5118798;27;20212;-76
2024/01/21 08:31:03;;;;;;;4.75;3.60;;;-2.00;96.00;;;;;;5115191;27;20204;-76
2024/01/21 08:33:30;;;;;;;3.03;2.85;;;-1.90;96.20;;;;;;5109677;27;20658;-76
2024/01/21 08:35:57;;;;;;;9.75;3.95;;;-1.90;96.20;;;;;;5104815;27;20205;-77
2024/01/21 08:38:23;;;;;;;2.67;2.47;;;-1.80;96.10;;;;;;5108961;27;20296;-76
2024/01/21 08:40:50;;;;;;;6.03;3.80;;;-1.70;96.10;;;;;;5102626;27;20204;-72
2024/01/21 08:43:18;;;;;;;6.55;3.95;;;-1.80;96.00;;;;;;5103473;27;20314;-69
2024/01/21 08:45:45;;;;;;;3.65;3.28;;;-1.80;96.10;;;;;;5100547;27;20283;-70
2024/01/21 08:48:12;;;;;;;4.32;3.45;;;-1.70;96.00;;;;;;5101343;27;20220;-70
2024/01/21 08:50:40;;;;;;;23.92;4.72;;;-1.60;96.10;;;;;;5097921;27;20212;-69
2024/01/21 08:53:06;;;;;;;5.03;3.03;;;-1.60;96.30;;;;;;5095326;27;20217;-70
2024/01/21 08:55:33;;;;;;;4.05;3.42;;;-1.50;96.20;;;;;;5097841;27;20199;-70
2024/01/21 08:58:00;;;;;;;4.07;3.70;;;-1.40;96.20;;;;;;5103971;27;20586;-70
2024/01/21 09:00:28;;;;;;;3.80;2.95;;;-1.30;96.20;;;;;;5112493;27;20198;-69
2024/01/21 09:02:55;;;;;;;5.97;3.80;;;-1.20;96.00;;;;;;5120866;27;20196;-68
2024/01/21 09:05:22;;;;;;;6.03;4.47;;;-1.20;95.90;;;;;;5113571;27;20207;-69
2024/01/21 09:07:49;;;;;;;13.88;5.38;;;-1.20;95.90;;;;;;5116765;27;20192;-69
2024/01/21 09:10:17;;;;;;;5.65;3.42;;;-1.20;95.90;;;;;;5114334;27;20684;-71
2024/01/21 09:12:43;;;;;;;4.68;4.30;;;-1.10;96.00;;;;;;5116198;27;20195;-71
2024/01/21 09:15:10;;;;;;;3.97;3.67;;;-1.00;96.20;;;;;;5109722;27;20203;-69
2024/01/21 09:17:39;;;;;;;5.40;3.97;;;-1.10;96.10;;;;;;5120365;27;20231;-70
2024/01/21 09:20:06;;;;;;;5.05;3.95;;;-1.00;96.10;;;;;;5108252;27;20205;-72
2024/01/21 09:22:33;;;;;;;6.05;3.95;;;-0.80;96.00;;;;;;5112516;27;20212;-72
2024/01/21 09:25:00;;;;;;;6.82;5.05;;;-0.90;95.90;;;;;;5102260;27;20201;-71
2024/01/21 09:27:30;;;;;;;5.03;4.50;;;-0.90;96.00;;;;;;5110369;27;20203;-83
2024/01/21 09:29:56;;;;;;;4.97;4.57;;;-0.80;96.10;;;;;;5112050;27;20198;-72
2024/01/21 09:32:23;;;;;;;6.70;3.95;;;-0.70;96.00;;;;;;5112757;27;20198;-72
2024/01/21 09:34:51;;;;;;;4.15;3.65;;;-0.80;95.80;;;;;;5107402;27;20202;-72
2024/01/21 09:37:18;;;;;;;5.47;4.22;;;-0.70;95.80;;;;;;5101021;27;20226;-70
2024/01/21 09:39:45;;;;;;;3.95;3.50;;;-0.60;95.70;;;;;;5107833;27;20200;-70
2024/01/21 09:42:16;;;;;;;5.20;3.40;;;-0.60;95.70;;;;;;5101924;27;20202;-70
2024/01/21 09:44:43;;;;;;;4.05;3.72;;;-0.60;95.70;;;;;;5102628;27;20198;-70
2024/01/21 09:47:11;;;;;;;2.90;2.70;;;-0.50;95.80;;;;;;5103460;28;20228;-70
2024/01/21 09:49:38;;;;;;;7.07;4.72;;;-0.40;95.70;;;;;;5104441;28;20714;-69
2024/01/21 09:52:07;;;;;;;8.77;6.15;;;-0.30;95.50;;;;;;5097386;28;20208;-76
2024/01/21 09:54:33;;;;;;;5.85;3.35;;;-0.30;95.50;;;;;;5099214;28;20280;-73
2024/01/21 09:57:05;;;;;;;6.13;4.85;;;-0.30;95.70;;;;;;5102540;28;20226;-74
2024/01/21 09:59:33;;;;;;;7.25;3.60;;;-0.40;95.90;;;;;;5105874;28;20201;-77
2024/01/21 10:02:00;;;;;;;5.75;3.78;;;-0.10;96.00;;;;;;5103813;28;20194;-79
2024/01/21 10:04:26;;;;;;;10.05;4.82;;;-0.10;95.60;;;;;;5107365;28;20674;-75
2024/01/21 10:06:57;;;;;;;4.18;3.42;;;-0.10;95.90;;;;;;5102186;28;20191;-77
2024/01/21 10:09:25;;;;;;;7.60;4.32;;;0.00;96.20;;;;;;5119024;27;20436;-75
2024/01/21 10:11:56;;;;;;;6.68;4.13;;;0.10;95.60;;;;;;5100929;28;20267;-83
2024/01/21 10:14:23;;;;;;;6.03;3.47;;;0.10;95.50;;;;;;5100213;28;20232;-76
2024/01/21 10:16:50;;;;;;;7.30;4.38;;;0.30;95.40;;;;;;5102882;28;20301;-74
2024/01/21 10:19:26;;;;;;;5.82;4.20;;;0.30;95.80;;;;;;5102169;28;20198;-76
2024/01/21 10:22:01;;;;;;;4.70;4.30;;;0.40;95.50;;;;;;5101110;28;20225;-73
2024/01/21 10:24:29;;;;;;;4.85;3.72;;;0.50;95.30;;;;;;5101581;28;20208;-75
2024/01/21 10:26:56;;;;;;;6.68;4.68;;;0.70;95.10;;;;;;5105737;28;20201;-71
2024/01/21 10:29:23;;;;;;;12.43;5.43;;;0.90;94.80;;;;;;5112410;28;20590;-75
2024/01/21 10:31:50;;;;;;;6.20;4.43;;;0.80;94.70;;;;;;5116567;28;20211;-75
2024/01/21 10:34:17;;;;;;;15.13;5.20;;;0.80;94.80;;;;;;5113916;28;20198;-73
2024/01/21 10:36:47;;;;;;;5.68;5.18;;;0.80;94.90;;;;;;5107721;28;20226;-72
2024/01/21 10:39:20;;;;;;;6.90;4.50;;;0.90;95.00;;;;;;5098855;28;20238;-72
2024/01/21 10:41:49;;;;;;;8.25;5.35;;;1.10;94.80;;;;;;5096727;28;20226;-72
2024/01/21 10:44:16;;;;;;;5.75;5.15;;;1.30;94.50;;;;;;5098384;28;20319;-72
2024/01/21 10:46:44;;;;;;;5.90;5.22;;;1.50;93.90;;;;;;5102621;28;20210;-72
2024/01/21 10:49:13;;;;;;;6.80;4.35;;;1.40;93.60;;;;;;5101500;28;20290;-73
2024/01/21 10:51:42;;;;;;;5.82;4.05;;;1.40;94.10;;;;;;5099087;28;20193;-71
2024/01/21 10:54:13;;;;;;;4.43;3.97;;;1.50;94.30;;;;;;5100162;28;20207;-71
2024/01/21 10:56:40;;;;;;;3.58;3.28;;;1.50;94.30;;;;;;5097607;28;20204;-72
2024/01/21 10:59:10;;;;;;;3.50;2.90;;;1.70;93.50;;;;;;5098181;28;20588;-72
2024/01/21 11:01:37;;;;;;;6.30;3.78;;;1.70;93.20;;;;;;5096103;28;20665;-72
2024/01/21 11:04:07;;;;;;;5.60;3.72;;;1.90;93.20;;;;;;5101506;27;20553;-72
2024/01/21 11:06:34;;;;;;;4.50;3.17;;;1.90;93.10;;;;;;5120238;28;20339;-72
2024/01/21 11:09:02;;;;;;;4.78;4.25;;;1.90;93.30;;;;;;5120507;27;20187;-72
2024/01/21 11:11:29;;;;;;;4.22;3.42;;;2.00;93.00;;;;;;5100630;27;20190;-73
2024/01/21 11:13:56;;;;;;;5.07;3.70;;;2.00;92.60;;;;;;5125833;27;20596;-73
2024/01/21 11:16:37;;;;;;;9.10;5.05;;;2.10;92.70;;;;;;5115544;27;20196;-72
2024/01/21 11:19:06;;;;;;;5.05;3.33;;;2.10;92.60;;;;;;5102788;27;20197;-72
2024/01/21 11:21:34;;;;;;;5.75;4.40;;;2.10;92.80;;;;;;5107133;27;20563;-70
2024/01/21 11:24:04;;;;;;;6.50;4.85;;;2.10;93.60;;;;;;5102604;28;20284;-70
2024/01/21 11:26:31;;;;;;;4.43;3.97;;;2.00;93.60;;;;;;5104451;27;20199;-71
2024/01/21 11:29:01;;;;;;;5.38;3.55;;;2.10;93.50;;;;;;5117547;27;20673;-71
2024/01/21 11:31:32;;;;;;;5.65;5.10;;;2.10;92.80;;;;;;5103706;27;20278;-71
2024/01/21 11:34:04;;;;;;;4.00;3.67;;;2.10;93.40;;;;;;5116974;27;20202;-71
2024/01/21 11:36:32;;;;;;;5.10;4.43;;;2.20;93.10;;;;;;5111683;27;20197;-71
2024/01/21 11:38:59;;;;;;;6.28;3.78;;;2.30;93.60;;;;;;5103601;27;20227;-74
2024/01/21 11:41:35;;;;;;;13.70;9.73;;;2.30;95.10;;;;;;5103497;27;20207;-73
2024/01/21 11:44:09;;;;;;;6.82;5.53;;;2.40;93.40;;;;;;5108081;27;20207;-73
2024/01/21 11:46:36;;;;;;;6.20;5.45;;;2.50;94.10;;;;;;5107905;27;20670;-72
2024/01/21 11:49:05;;;;;;;6.32;2.92;;;2.70;93.60;;;;;;5113448;27;20204;-72
2024/01/21 11:51:32;;;;;;;4.85;3.05;;;2.70;93.20;;;;;;5112763;27;20309;-73
2024/01/21 11:53:59;;;;;;;3.38;2.75;;;2.80;93.30;;;;;;5107607;27;20205;-71
2024/01/21 11:56:26;;;;;;;3.25;2.92;;;2.80;93.00;;;;;;5107974;27;20587;-70
2024/01/21 11:58:52;;;;;;;3.78;2.60;;;2.90;92.80;;;;;;5114886;27;20234;-72
2024/01/21 12:01:20;;;;;;;3.83;3.40;;;2.90;92.50;;;;;;5115932;27;20657;-72
2024/01/21 12:03:48;;;;;;;5.55;3.22;;;3.00;92.60;;;;;;5120837;27;20201;-72
2024/01/21 12:06:17;;;;;;;4.53;3.20;;;2.90;92.20;;;;;;5104041;27;20680;-73
2024/01/21 12:08:45;;;;;;;6.45;5.25;;;2.80;92.60;;;;;;5116748;27;20197;-73
2024/01/21 12:11:11;;;;;;;6.03;4.28;;;2.80;92.80;;;;;;5125697;27;20222;-73
2024/01/21 12:13:39;;;;;;;5.00;3.92;;;2.80;93.00;;;;;;5119465;27;20607;-73
2024/01/21 12:16:07;;;;;;;6.88;3.85;;;3.10;92.40;;;;;;5123781;27;20197;-73
2024/01/21 12:18:39;;;;;;;5.47;4.13;;;3.00;92.50;;;;;;5124471;27;20224;-73
2024/01/21 12:21:05;;;;;;;3.33;2.97;;;3.00;92.40;;;;;;5114698;27;20297;-73
2024/01/21 12:23:35;;;;;;;4.20;2.83;;;3.00;92.10;;;;;;5119547;27;20197;-73
2024/01/21 12:26:02;;;;;;;3.70;2.92;;;3.10;91.90;;;;;;5122806;27;20252;-73
2024/01/21 12:28:29;;;;;;;3.60;2.53;;;3.10;91.50;;;;;;5114982;27;20216;-73
2024/01/21 12:30:56;;;;;;;3.50;2.45;;;3.20;90.90;;;;;;5122378;27;20208;-73
2024/01/21 12:33:23;;;;;;;4.90;2.30;;;3.20;91.20;;;;;;5113872;27;20209;-73
2024/01/21 12:35:50;;;;;;;5.82;3.30;;;3.30;90.50;;;;;;5120110;27;20205;-73
2024/01/21 12:38:17;;;;;;;4.05;3.50;;;3.30;90.60;;;;;;5117082;27;20818;-73
2024/01/21 12:40:47;;;;;;;4.13;3.28;;;3.30;90.50;;;;;;5110597;27;20206;-73
2024/01/21 12:43:16;;;;;;;3.78;3.13;;;3.20;91.10;;;;;;5104600;27;20205;-73
2024/01/21 12:45:43;;;;;;;4.20;3.55;;;3.30;91.70;;;;;;5111873;27;20189;-73
2024/01/21 12:48:10;;;;;;;3.30;2.03;;;3.30;91.10;;;;;;5103023;27;20209;-73